createdAt,value
2023-02-27T00:01:01.836Z,55.76
2023-02-27T00:03:30.631Z,55.80
2023-02-27T00:05:59.028Z,55.62
2023-02-27T00:08:27.388Z,56.07
2023-02-27T00:10:55.746Z,55.84
2023-02-27T00:13:25.483Z,56.12
2023-02-27T00:15:56.570Z,55.94
2023-02-27T00:18:24.977Z,56.17
2023-02-27T00:20:53.587Z,55.91
2023-02-27T00:23:22.260Z,55.92
2023-02-27T00:25:52.432Z,56.00
2023-02-27T00:28:21.064Z,56.09
2023-02-27T00:30:50.788Z,56.07
2023-02-27T00:33:19.157Z,56.27
2023-02-27T00:35:47.504Z,56.40
2023-02-27T00:38:15.774Z,56.27
2023-02-27T00:40:44.164Z,56.04
2023-02-27T00:43:12.481Z,56.29
2023-02-27T00:45:40.843Z,56.20
2023-02-27T00:48:10.683Z,55.94
2023-02-27T00:50:39.868Z,56.30
2023-02-27T00:53:08.503Z,56.62
2023-02-27T00:55:37.309Z,56.67
2023-02-27T00:58:05.634Z,56.58
2023-02-27T01:00:34.051Z,56.50
2023-02-27T01:03:02.413Z,56.45
2023-02-27T01:05:32.441Z,56.47
2023-02-27T01:08:00.795Z,56.24
2023-02-27T01:10:29.169Z,56.25
2023-02-27T01:12:57.470Z,56.18
2023-02-27T01:15:25.828Z,56.44
2023-02-27T01:17:54.181Z,56.29
2023-02-27T01:20:22.790Z,56.25
2023-02-27T01:22:52.457Z,56.59
2023-02-27T01:25:21.205Z,56.48
2023-02-27T01:27:50.347Z,56.34
2023-02-27T01:30:19.000Z,56.26
2023-02-27T01:32:47.316Z,56.29
2023-02-27T01:35:15.687Z,56.01
2023-02-27T01:37:44.729Z,56.05
2023-02-27T01:40:15.653Z,56.20
2023-02-27T01:42:43.919Z,55.84
2023-02-27T01:45:42.906Z,56.02
2023-02-27T01:48:18.433Z,56.44
2023-02-27T01:50:51.213Z,56.55
2023-02-27T01:53:20.998Z,56.44
2023-02-27T01:55:51.718Z,56.60
2023-02-27T01:58:20.711Z,56.70
2023-02-27T02:00:49.883Z,56.78
2023-02-27T02:03:24.261Z,56.56
2023-02-27T02:05:54.934Z,56.83
2023-02-27T02:08:26.119Z,56.37
2023-02-27T02:10:58.071Z,56.36
2023-02-27T02:13:27.110Z,56.53
2023-02-27T02:16:06.914Z,56.18
2023-02-27T02:18:43.839Z,56.47
2023-02-27T02:21:56.220Z,56.39
2023-02-27T02:24:52.407Z,56.79
2023-02-27T02:27:34.287Z,56.90
2023-02-27T02:30:47.055Z,56.85
2023-02-27T02:33:52.269Z,56.96
2023-02-27T02:37:17.856Z,56.78
2023-02-27T02:39:58.804Z,57.01
2023-02-27T02:42:31.612Z,56.96
2023-02-27T02:45:10.939Z,56.94
2023-02-27T02:47:47.947Z,56.89
2023-02-27T02:50:26.324Z,56.56
2023-02-27T02:53:03.037Z,56.67
2023-02-27T02:55:36.592Z,56.63
2023-02-27T02:58:08.160Z,56.91
2023-02-27T03:00:41.839Z,56.89
2023-02-27T03:03:16.535Z,56.62
2023-02-27T03:05:51.528Z,56.64
2023-02-27T03:08:23.538Z,56.81
2023-02-27T03:10:59.233Z,57.19
2023-02-27T03:13:32.151Z,56.72
2023-02-27T03:16:06.015Z,56.94
2023-02-27T03:18:38.674Z,56.56
2023-02-27T03:21:11.652Z,56.78
2023-02-27T03:23:44.543Z,56.99
2023-02-27T03:26:18.516Z,56.44
2023-02-27T03:28:53.979Z,56.52
2023-02-27T03:31:29.131Z,56.85
2023-02-27T03:34:04.842Z,56.48
2023-02-27T03:36:43.431Z,56.77
2023-02-27T03:39:23.752Z,56.87
2023-02-27T03:41:59.505Z,56.39
2023-02-27T03:44:33.638Z,57.12
2023-02-27T03:47:02.174Z,56.88
2023-02-27T03:49:30.684Z,57.04
2023-02-27T03:51:59.006Z,56.76
2023-02-27T03:54:33.811Z,56.84
2023-02-27T03:57:06.057Z,56.55
2023-02-27T03:59:35.460Z,56.79
2023-02-27T04:02:04.641Z,56.57
2023-02-27T04:04:34.331Z,56.72
2023-02-27T04:07:25.245Z,56.40
2023-02-27T04:10:26.008Z,56.91
2023-02-27T04:13:22.041Z,56.78
2023-02-27T04:16:20.109Z,56.58
2023-02-27T04:19:00.285Z,56.61
2023-02-27T04:21:35.545Z,56.96
2023-02-27T04:24:14.221Z,56.56
2023-02-27T04:26:48.748Z,56.59
2023-02-27T04:29:24.565Z,56.71
2023-02-27T04:31:58.708Z,56.54
2023-02-27T04:34:32.770Z,56.95
2023-02-27T04:37:07.313Z,56.48
2023-02-27T04:39:41.136Z,57.22
2023-02-27T04:42:15.529Z,56.76
2023-02-27T04:44:47.803Z,56.63
2023-02-27T04:47:20.543Z,56.83
2023-02-27T04:49:53.337Z,57.14
2023-02-27T04:52:26.108Z,56.45
2023-02-27T04:54:58.461Z,57.29
2023-02-27T04:57:35.620Z,57.14
2023-02-27T05:00:11.820Z,57.36
2023-02-27T05:02:43.809Z,57.35
2023-02-27T05:05:17.780Z,56.71
2023-02-27T05:07:50.744Z,57.16
2023-02-27T05:10:26.161Z,56.95
2023-02-27T05:12:59.850Z,57.34
2023-02-27T05:15:34.120Z,56.85
2023-02-27T05:18:05.722Z,56.47
2023-02-27T05:20:40.930Z,56.86
2023-02-27T05:23:16.086Z,56.01
2023-02-27T05:25:51.810Z,55.40
2023-02-27T05:28:25.813Z,56.06
2023-02-27T05:31:04.808Z,56.57
2023-02-27T05:33:37.618Z,56.87
2023-02-27T05:36:12.735Z,56.86
2023-02-27T05:38:44.979Z,56.44
2023-02-27T05:41:16.242Z,56.95
2023-02-27T05:43:48.298Z,56.53
2023-02-27T05:46:22.802Z,55.94
2023-02-27T05:48:56.159Z,56.47
2023-02-27T05:51:28.581Z,57.11
2023-02-27T05:54:01.291Z,56.53
2023-02-27T05:56:34.645Z,56.89
2023-02-27T05:59:07.505Z,55.57
2023-02-27T06:01:38.192Z,56.11
2023-02-27T06:04:06.590Z,56.63
2023-02-27T06:06:37.267Z,56.47
2023-02-27T06:09:05.874Z,56.40
2023-02-27T06:11:34.190Z,56.54
2023-02-27T06:14:03.471Z,56.42
2023-02-27T06:16:32.041Z,56.43
2023-02-27T06:19:04.843Z,55.81
2023-02-27T06:21:33.373Z,55.54
2023-02-27T06:24:01.627Z,55.76
2023-02-27T06:26:30.054Z,56.06
2023-02-27T06:28:58.457Z,56.12
2023-02-27T06:31:26.985Z,55.69
2023-02-27T06:33:55.856Z,56.69
2023-02-27T06:36:26.357Z,56.56
2023-02-27T06:38:54.944Z,56.73
2023-02-27T06:41:23.383Z,56.67
2023-02-27T06:43:51.774Z,56.30
2023-02-27T06:46:20.493Z,56.35
2023-02-27T06:48:48.846Z,56.15
2023-02-27T06:51:17.125Z,55.98
2023-02-27T06:53:46.934Z,56.04
2023-02-27T06:56:15.304Z,55.97
2023-02-27T06:58:43.690Z,56.06
2023-02-27T07:01:13.656Z,55.84
2023-02-27T07:03:42.046Z,55.84
2023-02-27T07:06:10.594Z,55.54
2023-02-27T07:08:38.958Z,55.48
2023-02-27T07:11:28.633Z,54.71
2023-02-27T07:13:57.031Z,55.47
2023-02-27T07:16:25.670Z,55.52
2023-02-27T07:18:54.250Z,55.29
2023-02-27T07:21:22.956Z,55.03
2023-02-27T07:23:51.327Z,55.29
2023-02-27T07:26:20.003Z,55.15
2023-02-27T07:28:49.744Z,54.83
2023-02-27T07:31:18.101Z,55.58
2023-02-27T07:33:46.395Z,55.56
2023-02-27T07:36:14.811Z,55.23
2023-02-27T07:38:43.130Z,55.34
2023-02-27T07:41:21.240Z,55.09
2023-02-27T07:43:59.430Z,53.68
2023-02-27T07:46:28.277Z,54.45
2023-02-27T07:48:56.897Z,53.84
2023-02-27T07:51:25.193Z,53.22
2023-02-27T07:53:53.549Z,53.41
2023-02-27T07:56:21.859Z,53.81
2023-02-27T07:58:50.171Z,53.88
2023-02-27T08:01:20.355Z,53.00
2023-02-27T08:03:49.275Z,53.69
2023-02-27T08:06:17.583Z,52.90
2023-02-27T08:08:46.078Z,53.05
2023-02-27T08:11:14.418Z,52.92
2023-02-27T08:13:59.560Z,52.65
2023-02-27T08:16:31.229Z,52.58
2023-02-27T08:19:00.010Z,53.25
2023-02-27T08:21:28.723Z,53.99
2023-02-27T08:23:57.321Z,53.63
2023-02-27T08:26:26.077Z,53.57
2023-02-27T08:28:54.590Z,53.72
2023-02-27T08:31:23.279Z,53.06
2023-02-27T08:34:01.176Z,53.12
2023-02-27T08:36:37.629Z,52.82
2023-02-27T08:39:07.136Z,52.77
2023-02-27T08:41:35.728Z,53.15
2023-02-27T08:44:04.318Z,53.32
2023-02-27T08:46:32.779Z,53.56
2023-02-27T08:49:02.516Z,52.02
2023-02-27T08:51:30.895Z,51.12
2023-02-27T08:54:00.108Z,51.62
2023-02-27T08:56:29.972Z,50.81
2023-02-27T08:58:59.044Z,52.12
2023-02-27T09:01:32.043Z,52.06
2023-02-27T09:04:03.143Z,50.85
2023-02-27T09:06:33.150Z,50.83
2023-02-27T09:09:01.637Z,51.61
2023-02-27T09:11:30.330Z,51.34
2023-02-27T09:13:59.030Z,51.30
2023-02-27T09:16:27.860Z,51.90
2023-02-27T09:18:56.678Z,52.13
2023-02-27T09:21:26.596Z,51.26
2023-02-27T09:23:55.144Z,51.54
2023-02-27T09:26:39.760Z,51.49
2023-02-27T09:29:10.506Z,51.90
2023-02-27T09:31:39.231Z,52.09
2023-02-27T09:34:07.572Z,52.60
2023-02-27T09:36:37.311Z,52.30
2023-02-27T09:39:05.952Z,51.80
2023-02-27T09:41:48.285Z,52.08
2023-02-27T09:44:39.760Z,52.06
2023-02-27T09:47:17.353Z,51.08
2023-02-27T09:49:50.989Z,50.65
2023-02-27T09:52:20.960Z,50.38
2023-02-27T09:54:50.588Z,51.14
2023-02-27T09:57:26.253Z,51.12
2023-02-27T10:00:01.222Z,50.96
2023-02-27T10:02:48.453Z,50.61
2023-02-27T10:05:27.812Z,51.37
2023-02-27T10:08:05.583Z,50.22
2023-02-27T10:10:41.884Z,50.56
2023-02-27T10:13:35.026Z,50.18
2023-02-27T10:16:04.671Z,51.03
2023-02-27T10:18:37.137Z,49.70
2023-02-27T10:21:11.887Z,49.73
2023-02-27T10:23:46.945Z,49.48
2023-02-27T10:26:21.084Z,50.88
2023-02-27T10:28:49.560Z,51.15
2023-02-27T10:31:23.867Z,50.89
2023-02-27T10:33:53.495Z,49.65
2023-02-27T10:36:33.129Z,50.40
2023-02-27T10:39:08.057Z,49.92
2023-02-27T10:41:37.965Z,51.74
2023-02-27T10:44:07.015Z,50.58
2023-02-27T10:46:39.051Z,50.45
2023-02-27T10:49:18.763Z,51.32
2023-02-27T10:51:48.334Z,50.74
2023-02-27T10:54:23.767Z,51.10
2023-02-27T10:56:54.909Z,51.28
2023-02-27T10:59:27.142Z,50.86
2023-02-27T11:01:57.200Z,51.22
2023-02-27T11:04:29.703Z,50.90
2023-02-27T11:06:59.538Z,50.39
2023-02-27T11:09:33.407Z,50.80
2023-02-27T11:12:22.746Z,51.06
2023-02-27T11:14:53.301Z,50.79
2023-02-27T11:17:29.987Z,50.09
2023-02-27T11:19:59.503Z,50.34
2023-02-27T11:22:29.970Z,50.29
2023-02-27T11:25:22.542Z,51.22
2023-02-27T11:27:52.321Z,51.25
2023-02-27T11:30:28.257Z,51.12
2023-02-27T11:33:00.282Z,50.49
2023-02-27T11:35:31.706Z,50.50
2023-02-27T11:38:03.429Z,50.36
2023-02-27T11:40:35.779Z,50.17
2023-02-27T11:43:06.852Z,50.41
2023-02-27T11:46:08.028Z,50.15
2023-02-27T11:48:29.916Z,49.69
2023-02-27T11:51:37.442Z,49.81
2023-02-27T11:54:16.578Z,50.08
2023-02-27T11:56:51.844Z,50.18
2023-02-27T11:59:28.988Z,49.44
2023-02-27T12:02:04.502Z,47.84
2023-02-27T12:04:46.065Z,47.55
2023-02-27T12:07:21.495Z,48.84
2023-02-27T12:09:58.335Z,50.11
2023-02-27T12:12:34.740Z,50.21
2023-02-27T12:15:08.884Z,49.32
2023-02-27T12:17:42.373Z,49.25
2023-02-27T12:20:31.528Z,48.55
2023-02-27T12:23:01.986Z,48.77
2023-02-27T12:25:42.125Z,48.99
2023-02-27T12:28:31.901Z,48.76
2023-02-27T12:31:18.440Z,48.89
2023-02-27T12:33:51.427Z,48.48
2023-02-27T12:36:19.896Z,49.14
2023-02-27T12:38:48.320Z,49.54
2023-02-27T12:41:38.039Z,49.45
2023-02-27T12:44:25.021Z,49.48
2023-02-27T12:47:01.785Z,49.12
2023-02-27T12:49:43.204Z,48.16
2023-02-27T12:52:26.168Z,48.43
2023-02-27T12:55:05.289Z,48.78
2023-02-27T12:58:01.150Z,48.20
2023-02-27T13:00:41.700Z,48.74
2023-02-27T13:03:16.539Z,48.03
2023-02-27T13:05:53.327Z,48.04
2023-02-27T13:08:44.491Z,48.74
2023-02-27T13:11:22.978Z,49.04
2023-02-27T13:13:56.615Z,48.32
2023-02-27T13:16:27.775Z,49.00
2023-02-27T13:19:00.779Z,49.19
2023-02-27T13:21:35.281Z,49.03
2023-02-27T13:24:24.189Z,49.02
2023-02-27T13:26:59.190Z,49.13
2023-02-27T13:29:34.944Z,48.44
2023-02-27T13:32:21.442Z,49.03
2023-02-27T13:34:56.900Z,49.31
2023-02-27T13:37:24.938Z,49.79
2023-02-27T13:39:57.287Z,48.92
2023-02-27T13:43:07.751Z,48.28
2023-02-27T13:45:54.411Z,48.56
2023-02-27T13:48:41.775Z,47.87
2023-02-27T13:51:32.737Z,48.54
2023-02-27T13:54:20.747Z,48.95
2023-02-27T13:56:51.673Z,49.00
2023-02-27T13:59:24.749Z,48.69
2023-02-27T14:01:55.834Z,48.90
2023-02-27T14:04:28.906Z,48.92
2023-02-27T14:07:01.448Z,48.88
2023-02-27T14:09:37.570Z,49.52
2023-02-27T14:12:08.110Z,50.06
2023-02-27T14:14:46.086Z,50.59
2023-02-27T14:17:15.714Z,51.11
2023-02-27T14:19:57.235Z,51.33
2023-02-27T14:23:09.839Z,50.72
2023-02-27T14:25:43.234Z,50.42
2023-02-27T14:28:23.227Z,50.68
2023-02-27T14:30:58.928Z,50.63
2023-02-27T14:33:40.081Z,49.91
2023-02-27T14:36:18.424Z,49.60
2023-02-27T14:38:47.656Z,49.90
2023-02-27T14:41:41.872Z,49.78
2023-02-27T14:44:19.301Z,48.94
2023-02-27T14:46:47.735Z,50.00
2023-02-27T14:49:22.275Z,49.53
2023-02-27T14:51:53.266Z,48.73
2023-02-27T14:54:23.494Z,48.55
2023-02-27T14:56:56.307Z,48.61
2023-02-27T14:59:25.959Z,48.33
2023-02-27T15:01:56.086Z,48.04
2023-02-27T15:04:27.943Z,48.12
2023-02-27T15:06:59.554Z,47.53
2023-02-27T15:09:35.683Z,47.70
2023-02-27T15:12:05.041Z,47.99
2023-02-27T15:14:36.364Z,47.98
2023-02-27T15:17:05.845Z,48.21
2023-02-27T15:19:34.204Z,48.35
2023-02-27T15:22:05.706Z,48.74
2023-02-27T15:24:49.264Z,48.68
2023-02-27T15:27:21.581Z,49.03
2023-02-27T15:29:53.251Z,48.88
2023-02-27T15:32:30.011Z,48.81
2023-02-27T15:35:01.034Z,48.24
2023-02-27T15:37:33.731Z,47.85
2023-02-27T15:40:03.426Z,48.28
2023-02-27T15:42:35.191Z,49.21
2023-02-27T15:45:05.288Z,49.35
2023-02-27T15:47:35.037Z,48.74
2023-02-27T15:50:12.213Z,48.94
2023-02-27T15:52:44.208Z,49.33
2023-02-27T15:55:16.003Z,49.52
2023-02-27T15:57:56.617Z,49.38
2023-02-27T16:00:30.612Z,49.86
2023-02-27T16:03:00.130Z,49.65
2023-02-27T16:05:36.304Z,49.74
2023-02-27T16:08:07.580Z,49.78
2023-02-27T16:10:41.900Z,49.55
2023-02-27T16:13:31.496Z,49.24
2023-02-27T16:16:01.732Z,49.62
2023-02-27T16:18:34.827Z,49.18
2023-02-27T16:21:12.214Z,48.70
2023-02-27T16:23:42.994Z,48.49
2023-02-27T16:26:31.075Z,48.77
2023-02-27T16:29:02.673Z,49.13
2023-02-27T16:31:32.923Z,49.27
2023-02-27T16:34:03.620Z,49.54
2023-02-27T16:36:33.909Z,49.95
2023-02-27T16:39:03.878Z,50.27
2023-02-27T16:41:32.445Z,50.31
2023-02-27T16:44:00.751Z,50.53
2023-02-27T16:46:29.445Z,50.56
2023-02-27T16:49:17.700Z,50.81
2023-02-27T16:51:48.118Z,51.43
2023-02-27T16:54:31.722Z,51.65
2023-02-27T16:57:00.035Z,51.83
2023-02-27T16:59:34.266Z,52.47
2023-02-27T17:02:04.479Z,52.04
2023-02-27T17:04:33.356Z,52.18
2023-02-27T17:07:06.401Z,52.69
2023-02-27T17:09:36.466Z,53.46
2023-02-27T17:12:04.935Z,53.37
2023-02-27T17:14:33.246Z,54.00
2023-02-27T17:17:01.986Z,53.71
2023-02-27T17:19:30.270Z,54.36
2023-02-27T17:21:58.822Z,53.66
2023-02-27T17:24:27.492Z,53.89
2023-02-27T17:26:57.647Z,54.44
2023-02-27T17:29:26.080Z,53.94
2023-02-27T17:31:54.429Z,54.44
2023-02-27T17:34:22.850Z,54.55
2023-02-27T17:36:53.406Z,55.01
2023-02-27T17:39:21.828Z,54.70
2023-02-27T17:41:53.095Z,54.85
2023-02-27T17:44:22.837Z,55.01
2023-02-27T17:46:51.200Z,55.23
2023-02-27T17:49:19.940Z,54.76
2023-02-27T17:51:48.591Z,54.58
2023-02-27T17:54:17.122Z,54.97
2023-02-27T17:56:45.473Z,55.55
2023-02-27T17:59:13.884Z,55.51
2023-02-27T18:01:43.687Z,55.44
2023-02-27T18:04:12.871Z,55.13
2023-02-27T18:06:41.286Z,55.65
2023-02-27T18:09:09.582Z,55.21
2023-02-27T18:11:38.876Z,55.54
2023-02-27T18:14:07.399Z,55.74
2023-02-27T18:16:36.481Z,55.78
2023-02-27T18:19:07.622Z,55.83
2023-02-27T18:21:36.615Z,55.74
2023-02-27T18:24:06.146Z,56.02
2023-02-27T18:26:35.183Z,55.87
2023-02-27T18:29:06.825Z,56.44
2023-02-27T18:31:37.831Z,56.20
2023-02-27T18:34:08.695Z,56.42
2023-02-27T18:36:38.169Z,56.10
2023-02-27T18:39:07.983Z,56.63
2023-02-27T18:41:37.415Z,56.51
2023-02-27T18:44:07.103Z,56.71
2023-02-27T18:46:35.921Z,56.89
2023-02-27T18:49:04.474Z,57.10
2023-02-27T18:51:34.299Z,57.23
2023-02-27T18:54:04.584Z,57.36
2023-02-27T18:56:33.523Z,57.27
2023-02-27T18:59:05.426Z,58.03
2023-02-27T19:01:35.948Z,58.36
2023-02-27T19:04:05.973Z,58.02
2023-02-27T19:06:41.093Z,57.87
2023-02-27T19:09:11.173Z,58.19
2023-02-27T19:11:39.600Z,58.11
2023-02-27T19:14:10.631Z,58.42
2023-02-27T19:16:39.043Z,59.21
2023-02-27T19:19:09.975Z,58.78
2023-02-27T19:21:39.882Z,59.16
2023-02-27T19:24:09.398Z,59.69
2023-02-27T19:26:37.832Z,59.12
2023-02-27T19:29:07.444Z,59.81
2023-02-27T19:31:36.384Z,59.79
2023-02-27T19:34:04.701Z,59.75
2023-02-27T19:36:35.249Z,59.46
2023-02-27T19:39:06.945Z,59.88
2023-02-27T19:41:36.706Z,60.46
2023-02-27T19:44:06.987Z,59.88
2023-02-27T19:46:35.948Z,60.38
2023-02-27T19:49:06.710Z,60.14
2023-02-27T19:51:36.662Z,60.31
2023-02-27T19:54:08.015Z,59.88
2023-02-27T19:56:37.546Z,60.65
2023-02-27T19:59:06.021Z,60.11
2023-02-27T20:01:39.354Z,60.03
2023-02-27T20:04:11.551Z,60.25
2023-02-27T20:06:43.229Z,60.22
2023-02-27T20:09:17.372Z,59.93
2023-02-27T20:11:48.297Z,60.19
2023-02-27T20:14:19.468Z,60.40
2023-02-27T20:16:49.327Z,60.60
2023-02-27T20:19:19.702Z,60.70
2023-02-27T20:21:48.933Z,59.64
2023-02-27T20:24:20.098Z,59.88
2023-02-27T20:26:51.491Z,60.08
2023-02-27T20:29:23.325Z,60.34
2023-02-27T20:31:56.018Z,60.13
2023-02-27T20:34:27.466Z,60.18
2023-02-27T20:36:58.162Z,60.27
2023-02-27T20:39:30.852Z,60.26
2023-02-27T20:42:00.712Z,60.30
2023-02-27T20:44:30.960Z,60.30
2023-02-27T20:47:00.533Z,59.72
2023-02-27T20:49:30.937Z,59.84
2023-02-27T20:52:00.358Z,60.12
2023-02-27T20:54:33.034Z,60.45
2023-02-27T20:57:02.746Z,60.04
2023-02-27T20:59:32.374Z,60.24
2023-02-27T21:02:04.308Z,60.41
2023-02-27T21:04:43.163Z,60.17
2023-02-27T21:07:15.161Z,60.52
2023-02-27T21:09:46.804Z,59.65
2023-02-27T21:12:17.129Z,59.60
2023-02-27T21:14:47.254Z,60.21
2023-02-27T21:17:17.411Z,60.06
2023-02-27T21:19:47.264Z,59.88
2023-02-27T21:22:17.648Z,60.13
2023-02-27T21:24:50.477Z,59.94
2023-02-27T21:27:22.653Z,59.67
2023-02-27T21:29:51.618Z,59.80
2023-02-27T21:32:20.029Z,60.14
2023-02-27T21:34:48.764Z,59.88
2023-02-27T21:37:17.497Z,60.02
2023-02-27T21:39:50.567Z,59.62
2023-02-27T21:42:21.457Z,59.57
2023-02-27T21:44:50.247Z,59.48
2023-02-27T21:47:19.342Z,60.02
2023-02-27T21:49:48.233Z,59.95
2023-02-27T21:52:16.563Z,59.56
2023-02-27T21:54:44.981Z,59.39
2023-02-27T21:57:13.361Z,59.37
2023-02-27T21:59:44.438Z,59.58
2023-02-27T22:02:14.812Z,59.56
2023-02-27T22:04:43.653Z,60.02
2023-02-27T22:07:11.947Z,59.44
2023-02-27T22:09:40.285Z,59.53
2023-02-27T22:12:09.252Z,59.46
2023-02-27T22:14:37.861Z,59.18
2023-02-27T22:17:07.769Z,59.21
2023-02-27T22:19:36.076Z,59.14
2023-02-27T22:22:04.422Z,59.27
2023-02-27T22:24:32.927Z,59.51
2023-02-27T22:27:01.411Z,59.33
2023-02-27T22:29:29.720Z,59.58
2023-02-27T22:31:58.654Z,59.48
2023-02-27T22:34:28.495Z,59.52
2023-02-27T22:36:57.036Z,59.42
2023-02-27T22:39:25.988Z,59.29
2023-02-27T22:41:56.764Z,59.29
2023-02-27T22:44:25.291Z,59.23
2023-02-27T22:46:54.763Z,59.46
2023-02-27T22:49:24.767Z,59.74
2023-02-27T22:51:54.742Z,59.50
2023-02-27T22:54:24.149Z,59.26
2023-02-27T22:56:56.304Z,59.44
2023-02-27T22:59:26.795Z,59.47
2023-02-27T23:01:55.298Z,58.98
2023-02-27T23:04:23.626Z,59.38
2023-02-27T23:06:55.417Z,58.98
2023-02-27T23:09:27.357Z,59.20
2023-02-27T23:11:56.635Z,58.83
2023-02-27T23:14:24.900Z,59.32
2023-02-27T23:16:53.235Z,59.14
2023-02-27T23:19:23.341Z,59.06
2023-02-27T23:21:51.680Z,58.48
2023-02-27T23:24:21.666Z,59.03
2023-02-27T23:26:52.295Z,58.99
2023-02-27T23:29:21.265Z,59.33
2023-02-27T23:31:49.681Z,59.01
2023-02-27T23:34:18.434Z,59.09
2023-02-27T23:36:47.078Z,59.01
2023-02-27T23:39:15.402Z,59.32
2023-02-27T23:41:45.169Z,58.88
2023-02-27T23:44:13.466Z,59.03
2023-02-27T23:46:41.776Z,58.43
2023-02-27T23:49:10.236Z,59.24
2023-02-27T23:51:38.737Z,58.63
2023-02-27T23:54:07.145Z,59.04
2023-02-27T23:56:35.891Z,58.54
2023-02-27T23:59:07.286Z,58.44
